SQW weather

Skive Airport
Skive, Central Jutland, Denmark

Public forecast

Using degrees Celsius for public forecast. Weather courtesy of forecast.io.

Closest aviation weather report (METAR) to Skive Airport

Closest report is Karup Airport, 15.3 nm (28.3 km) S. Retrieved 2019/10/17 11:20 UTC (6 minutes ago):

EKKA 171120Z 23008KT 9999 SCT020 SCT060 14/12 Q1006 NOSIG

Closest aviation forecast (TAF) to Skive Airport

Forecast is more than 6 hours old.

Closest forecast is Karup Airport, 15.3 nm (28.3 km) S. Retrieved 2019-10-17 03:30 UTC (8 hours ago):

TAF EKKA 170221Z 1703/1803 14006KT 2000 RA BR BKN004 TEMPO 1703/1709 5000 -RA SCT006 BKN015 BECMG 1709/1711 24010KT 9999 NSW BKN020 TEMPO 1711/1803 6000 -SHRA BKN015TCU BECMG 1718/1721 18006KT